Time;durP1;ratioP1;P1;durP2;ratioP2;P2;SDS_P1;SDS_P2;PMS_P1;PMS_P2;Temp;Humidity;BMP_temperature;BMP_pressure;BME280_temperature;BME280_humidity;BME280_pressure;Samples;Min_cycle;Max_cycle;Signal;HPM_P1;HPM_P2
2021/10/27 00:00:28;;;;;;;7.67;5.40;;;4.50;89.70;;;;;;5026758;28;20231;-73
2021/10/27 00:02:55;;;;;;;5.40;4.83;;;4.50;89.50;;;;;;5029034;28;20295;-72
2021/10/27 00:05:21;;;;;;;4.57;4.17;;;4.50;89.50;;;;;;5023711;28;20666;-72
2021/10/27 00:07:46;;;;;;;5.23;4.73;;;4.50;89.50;;;;;;5031309;28;20191;-72
2021/10/27 00:10:13;;;;;;;6.27;4.83;;;4.50;89.50;;;;;;5026402;28;20198;-73
2021/10/27 00:12:39;;;;;;;9.17;5.07;;;4.50;89.70;;;;;;5028867;28;20212;-73
2021/10/27 00:15:08;;;;;;;6.27;4.57;;;4.40;89.90;;;;;;5024902;28;20254;-73
2021/10/27 00:17:34;;;;;;;7.27;4.97;;;4.40;89.60;;;;;;5029636;28;20672;-73
2021/10/27 00:20:00;;;;;;;19.10;5.87;;;4.40;89.80;;;;;;5030394;28;20219;-73
2021/10/27 00:22:26;;;;;;;6.73;4.33;;;4.30;89.60;;;;;;5029174;28;20235;-73
2021/10/27 00:24:52;;;;;;;7.07;5.73;;;4.30;89.80;;;;;;5027838;28;20239;-73
2021/10/27 00:27:17;;;;;;;7.23;5.20;;;4.30;89.70;;;;;;5027380;28;20184;-73
2021/10/27 00:29:43;;;;;;;8.40;4.40;;;4.30;89.70;;;;;;5028199;28;20188;-73
2021/10/27 00:32:09;;;;;;;7.40;5.43;;;4.30;89.80;;;;;;5020422;28;20192;-73
2021/10/27 00:34:35;;;;;;;6.47;4.83;;;4.20;90.00;;;;;;5029348;28;20189;-75
2021/10/27 00:37:01;;;;;;;6.30;5.33;;;4.20;90.00;;;;;;5028370;28;20220;-73
2021/10/27 00:39:27;;;;;;;6.53;5.33;;;4.20;90.50;;;;;;5027091;28;20177;-73
2021/10/27 00:41:53;;;;;;;7.40;5.93;;;4.20;90.40;;;;;;5027094;28;20181;-73
2021/10/27 00:44:21;;;;;;;10.17;5.20;;;4.10;90.60;;;;;;5026686;28;20234;-73
2021/10/27 00:46:57;;;;;;;11.73;5.80;;;4.20;90.40;;;;;;5026202;28;20184;-73
2021/10/27 00:49:23;;;;;;;9.53;4.93;;;4.20;90.40;;;;;;5027043;28;20190;-74
2021/10/27 00:51:49;;;;;;;7.67;5.57;;;4.20;90.50;;;;;;5022773;28;20259;-73
2021/10/27 00:54:15;;;;;;;7.60;5.00;;;4.10;90.30;;;;;;5023892;28;20599;-73
2021/10/27 00:56:41;;;;;;;5.83;5.33;;;4.10;90.50;;;;;;5024285;28;20262;-73
2021/10/27 00:59:07;;;;;;;7.80;5.53;;;4.10;90.30;;;;;;5025705;28;20634;-74
2021/10/27 01:01:33;;;;;;;7.07;4.90;;;4.10;90.20;;;;;;5024085;28;20180;-73
2021/10/27 01:03:59;;;;;;;10.53;5.17;;;4.00;90.40;;;;;;5023781;28;20184;-73
2021/10/27 01:06:25;;;;;;;6.37;4.23;;;4.00;90.30;;;;;;5025045;28;20887;-73
2021/10/27 01:08:51;;;;;;;8.57;5.80;;;4.00;90.50;;;;;;5025960;28;20185;-73
2021/10/27 01:11:17;;;;;;;5.20;4.73;;;3.90;90.30;;;;;;5025509;28;20662;-73
2021/10/27 01:13:43;;;;;;;7.03;5.17;;;3.90;90.90;;;;;;5027141;28;20176;-74
2021/10/27 01:16:09;;;;;;;9.27;5.47;;;3.90;90.70;;;;;;5023952;28;20226;-73
2021/10/27 01:18:35;;;;;;;7.43;4.83;;;3.90;91.10;;;;;;5029257;28;20187;-74
2021/10/27 01:21:01;;;;;;;8.90;5.07;;;3.90;91.10;;;;;;5027071;28;20180;-74
2021/10/27 01:23:26;;;;;;;5.23;4.37;;;3.80;90.90;;;;;;5023246;28;20207;-73
2021/10/27 01:25:52;;;;;;;9.00;5.77;;;3.90;91.10;;;;;;5026703;28;20191;-74
2021/10/27 01:28:19;;;;;;;7.60;4.87;;;3.80;90.80;;;;;;5024270;28;20600;-74
2021/10/27 01:30:45;;;;;;;7.97;6.00;;;3.80;90.90;;;;;;5027113;28;20177;-73
2021/10/27 01:33:11;;;;;;;7.70;5.77;;;3.70;91.00;;;;;;5026986;28;20536;-73
2021/10/27 01:35:38;;;;;;;7.93;6.60;;;3.70;91.10;;;;;;5022539;28;20987;-73
2021/10/27 01:38:04;;;;;;;11.13;7.00;;;3.70;91.40;;;;;;5027560;28;20280;-73
2021/10/27 01:40:30;;;;;;;12.90;7.23;;;3.70;91.40;;;;;;5024879;28;20682;-73
2021/10/27 01:42:56;;;;;;;12.07;7.30;;;3.60;91.30;;;;;;5027574;28;20172;-73
2021/10/27 01:45:27;;;;;;;11.17;7.03;;;3.60;91.40;;;;;;5024326;28;20187;-73
2021/10/27 01:47:53;;;;;;;10.97;7.60;;;3.60;91.30;;;;;;5028889;28;20298;-73
2021/10/27 01:50:19;;;;;;;8.00;6.03;;;3.60;91.50;;;;;;5026099;28;20180;-74
2021/10/27 01:52:44;;;;;;;10.57;6.00;;;3.60;91.60;;;;;;5024172;28;20191;-73
2021/10/27 01:55:10;;;;;;;11.37;5.93;;;3.60;91.70;;;;;;5018197;28;20665;-73
2021/10/27 01:57:36;;;;;;;10.57;5.80;;;3.60;91.70;;;;;;5026333;28;20245;-74
2021/10/27 02:00:05;;;;;;;5.23;3.80;;;3.60;92.10;;;;;;5025021;28;20223;-74
2021/10/27 02:02:31;;;;;;;8.93;4.97;;;3.60;92.00;;;;;;5024352;28;20180;-73
2021/10/27 02:04:57;;;;;;;7.87;5.23;;;3.60;91.90;;;;;;5023187;28;20184;-73
2021/10/27 02:07:22;;;;;;;8.47;4.97;;;3.50;91.50;;;;;;5026348;28;20263;-73
2021/10/27 02:09:48;;;;;;;6.60;5.23;;;3.60;91.90;;;;;;5022186;28;20662;-73
2021/10/27 02:12:14;;;;;;;7.20;5.10;;;3.50;91.80;;;;;;5024938;28;20180;-75
2021/10/27 02:14:40;;;;;;;8.93;5.70;;;3.50;91.60;;;;;;5021888;28;20188;-75
2021/10/27 02:17:06;;;;;;;6.00;4.13;;;;;;;;;;5018620;28;20777;-73
2021/10/27 02:19:32;;;;;;;3.73;3.43;;;3.50;92.30;;;;;;5027298;28;20181;-73
2021/10/27 02:21:57;;;;;;;3.97;3.67;;;3.50;92.30;;;;;;5027497;28;20191;-73
2021/10/27 02:24:23;;;;;;;7.67;4.73;;;3.50;92.10;;;;;;5023659;28;20191;-73
2021/10/27 02:26:49;;;;;;;6.93;3.77;;;3.40;92.20;;;;;;5023898;28;20195;-73
2021/10/27 02:29:14;;;;;;;4.13;3.73;;;3.40;92.20;;;;;;5023327;28;20192;-73
2021/10/27 02:31:41;;;;;;;4.50;4.07;;;3.40;92.30;;;;;;5024939;28;20576;-73
2021/10/27 02:34:06;;;;;;;3.97;3.67;;;3.40;92.70;;;;;;5022037;28;20188;-72
2021/10/27 02:36:32;;;;;;;5.07;3.17;;;3.40;93.00;;;;;;5026019;28;20208;-75
2021/10/27 02:38:59;;;;;;;6.93;4.17;;;3.40;92.80;;;;;;5025830;28;20270;-73
2021/10/27 02:41:25;;;;;;;3.87;3.57;;;3.30;92.80;;;;;;5020631;28;20538;-73
2021/10/27 02:43:51;;;;;;;4.50;3.03;;;3.30;92.60;;;;;;5027440;28;20180;-74
2021/10/27 02:46:17;;;;;;;3.97;2.87;;;3.30;92.50;;;;;;5020848;28;20188;-74
2021/10/27 02:48:43;;;;;;;4.13;2.60;;;3.30;92.70;;;;;;5026696;28;20213;-74
2021/10/27 02:51:09;;;;;;;5.43;3.20;;;3.20;92.70;;;;;;5027049;28;20191;-73
2021/10/27 02:53:35;;;;;;;4.90;2.07;;;3.20;92.80;;;;;;5020625;28;20181;-74
2021/10/27 02:56:01;;;;;;;3.27;2.97;;;3.20;92.80;;;;;;5022924;28;20212;-73
2021/10/27 02:58:26;;;;;;;3.50;3.10;;;3.20;92.80;;;;;;5024767;28;20183;-74
2021/10/27 03:00:52;;;;;;;2.17;2.07;;;3.20;92.80;;;;;;5024153;28;20195;-73
2021/10/27 03:03:19;;;;;;;2.07;1.87;;;3.10;92.70;;;;;;5026742;28;20176;-73
2021/10/27 03:05:44;;;;;;;2.07;1.87;;;3.20;92.80;;;;;;5024542;28;20203;-73
2021/10/27 03:08:10;;;;;;;2.17;1.63;;;3.10;92.80;;;;;;5027860;28;20655;-73
2021/10/27 03:10:36;;;;;;;2.17;2.07;;;;;;;;;;5031625;28;20184;-74
2021/10/27 03:13:02;;;;;;;6.00;3.43;;;3.10;92.90;;;;;;5031937;28;20184;-73
2021/10/27 03:15:28;;;;;;;6.67;3.37;;;3.10;92.70;;;;;;5026630;28;20216;-73
2021/10/27 03:17:53;;;;;;;2.23;2.13;;;3.10;92.60;;;;;;5028964;28;20253;-74
2021/10/27 03:20:19;;;;;;;1.30;1.27;;;;;;;;;;5027591;28;20176;-73
2021/10/27 03:22:45;;;;;;;2.70;2.50;;;;;;;;;;5031207;28;20191;-73
2021/10/27 03:25:12;;;;;;;1.07;1.07;;;;;;;;;;5024863;28;20180;-73
2021/10/27 03:27:37;;;;;;;5.30;3.77;;;3.10;92.80;;;;;;5026518;28;20189;-73
2021/10/27 03:30:04;;;;;;;2.17;1.43;;;3.00;92.80;;;;;;5029119;28;20180;-73
2021/10/27 03:32:30;;;;;;;1.97;1.87;;;;;;;;;;5029877;28;20666;-72
2021/10/27 03:34:56;;;;;;;2.63;1.90;;;3.00;93.10;;;;;;5029798;28;20200;-73
2021/10/27 03:37:22;;;;;;;1.90;1.80;;;;;;;;;;5030491;28;20678;-74
2021/10/27 03:39:49;;;;;;;1.00;1.00;;;;;;;;;;5025858;28;20176;-74
2021/10/27 03:42:15;;;;;;;2.10;1.97;;;;;;;;;;5021194;28;20180;-74
2021/10/27 03:44:41;;;;;;;6.80;1.67;;;2.90;93.30;;;;;;5028436;28;20188;-74
2021/10/27 03:47:07;;;;;;;1.33;1.27;;;2.90;93.50;;;;;;5029004;28;20188;-74
2021/10/27 03:49:33;;;;;;;1.63;1.50;;;;;;;;;;5029784;28;20179;-74
2021/10/27 03:51:59;;;;;;;2.23;1.20;;;;;;;;;;5029127;28;20180;-74
2021/10/27 03:54:25;;;;;;;4.43;1.77;;;2.90;93.30;;;;;;5031320;28;20191;-75
2021/10/27 03:56:51;;;;;;;1.00;1.00;;;;;;;;;;5029615;28;20220;-74
2021/10/27 03:59:17;;;;;;;1.53;1.43;;;;;;;;;;5028973;28;20183;-75
2021/10/27 04:01:43;;;;;;;2.90;1.03;;;;;;;;;;5029657;28;20670;-75
2021/10/27 04:04:09;;;;;;;1.47;1.07;;;;;;;;;;5029110;28;20183;-75
2021/10/27 04:06:35;;;;;;;3.03;2.80;;;2.80;93.60;;;;;;5028325;28;20780;-74
2021/10/27 04:09:00;;;;;;;2.93;2.73;;;2.70;93.60;;;;;;5028920;28;20252;-75
2021/10/27 04:11:26;;;;;;;2.73;1.13;;;;;;;;;;5026605;28;20187;-74
2021/10/27 04:13:52;;;;;;;2.20;2.10;;;;;;;;;;5028630;28;20188;-74
2021/10/27 04:16:18;;;;;;;1.60;1.50;;;;;;;;;;5028512;28;20694;-74
2021/10/27 04:18:44;;;;;;;2.10;1.93;;;2.80;93.50;;;;;;5023691;28;20743;-73
2021/10/27 04:21:10;;;;;;;2.90;2.70;;;2.70;93.30;;;;;;5020170;28;20192;-74
2021/10/27 04:23:36;;;;;;;1.90;1.80;;;;;;;;;;5026769;28;20192;-73
2021/10/27 04:26:02;;;;;;;3.83;1.50;;;;;;;;;;5026763;28;20172;-73
2021/10/27 04:28:28;;;;;;;1.20;1.20;;;;;;;;;;5026600;28;20176;-74
2021/10/27 04:30:55;;;;;;;2.83;2.53;;;2.70;93.80;;;;;;5024913;28;20609;-74
2021/10/27 04:33:23;;;;;;;1.33;1.27;;;2.60;93.60;;;;;;5023241;28;20903;-74
2021/10/27 04:35:49;;;;;;;2.47;2.27;;;2.60;93.60;;;;;;5026971;28;20180;-73
2021/10/27 04:38:16;;;;;;;3.10;2.77;;;2.60;93.60;;;;;;5024714;28;20194;-74
2021/10/27 04:40:44;;;;;;;2.03;1.87;;;2.70;93.50;;;;;;5024612;28;20222;-74
2021/10/27 04:43:10;;;;;;;10.30;3.87;;;2.70;93.40;;;;;;5022439;28;20187;-74
2021/10/27 04:45:37;;;;;;;4.57;3.30;;;2.70;93.40;;;;;;5024782;28;20216;-73
2021/10/27 04:48:03;;;;;;;4.47;3.27;;;2.60;93.30;;;;;;5024575;28;20326;-74
2021/10/27 04:50:29;;;;;;;5.67;3.13;;;2.70;93.30;;;;;;5025680;28;20184;-74
2021/10/27 04:52:56;;;;;;;4.73;2.73;;;2.60;93.30;;;;;;5023961;28;20180;-74
2021/10/27 04:55:22;;;;;;;7.77;3.47;;;2.60;93.30;;;;;;5025485;28;20185;-74
2021/10/27 04:57:48;;;;;;;4.80;3.50;;;2.70;93.10;;;;;;5025072;28;20219;-74
2021/10/27 05:00:14;;;;;;;5.90;3.80;;;2.70;93.20;;;;;;5024897;28;20172;-74
2021/10/27 05:02:40;;;;;;;6.47;3.73;;;2.70;93.30;;;;;;5021370;28;20185;-74
2021/10/27 05:05:06;;;;;;;4.20;3.13;;;2.70;93.30;;;;;;5023996;28;20180;-74
2021/10/27 05:07:33;;;;;;;4.20;3.80;;;2.70;93.10;;;;;;5025562;28;20190;-74
2021/10/27 05:09:59;;;;;;;7.67;2.97;;;2.70;93.00;;;;;;5025249;28;20807;-74
2021/10/27 05:12:25;;;;;;;4.50;3.60;;;2.80;93.50;;;;;;5020884;28;20188;-74
2021/10/27 05:14:51;;;;;;;2.97;2.87;;;2.80;93.20;;;;;;5024262;28;20177;-74
2021/10/27 05:17:17;;;;;;;6.03;3.43;;;2.80;93.10;;;;;;5024719;28;20212;-74
2021/10/27 05:19:45;;;;;;;4.60;2.60;;;2.80;93.20;;;;;;5023896;28;20184;-74
2021/10/27 05:22:12;;;;;;;3.20;3.00;;;2.80;93.20;;;;;;5021899;28;20250;-74
2021/10/27 05:24:38;;;;;;;5.20;4.30;;;2.80;93.10;;;;;;5019910;28;20701;-74
2021/10/27 05:27:05;;;;;;;3.27;3.00;;;2.80;93.10;;;;;;5023718;28;20200;-73
2021/10/27 05:29:31;;;;;;;3.47;2.90;;;2.80;93.10;;;;;;5024567;28;20188;-73
2021/10/27 05:31:57;;;;;;;7.00;3.83;;;2.90;93.20;;;;;;5018606;28;20605;-73
2021/10/27 05:34:23;;;;;;;4.17;3.90;;;2.90;93.10;;;;;;5022729;28;20192;-73
2021/10/27 05:36:50;;;;;;;4.73;4.07;;;2.90;93.20;;;;;;5023497;28;20215;-73
2021/10/27 05:39:17;;;;;;;6.93;4.10;;;3.00;93.20;;;;;;5024273;28;20188;-73
2021/10/27 05:41:47;;;;;;;6.57;4.43;;;3.00;93.20;;;;;;5022973;28;20584;-75
2021/10/27 05:44:13;;;;;;;6.60;4.13;;;3.10;93.10;;;;;;5024595;28;20185;-74
2021/10/27 05:46:41;;;;;;;3.90;2.80;;;3.20;93.00;;;;;;5021917;28;20180;-74
2021/10/27 05:52:00;;;;;;;6.83;4.33;;;3.20;92.80;;;;;;4998506;28;20753;-74
2021/10/27 05:57:10;;;;;;;5.37;4.20;;;3.30;92.70;;;;;;4998061;28;20304;-70
2021/10/27 05:59:36;;;;;;;5.53;3.57;;;3.40;92.70;;;;;;4992351;28;20267;-70
2021/10/27 06:02:02;;;;;;;5.27;4.10;;;3.40;92.70;;;;;;4997732;28;20737;-70
2021/10/27 06:04:28;;;;;;;5.47;3.77;;;3.50;92.80;;;;;;5002995;28;20180;-70
2021/10/27 06:06:54;;;;;;;5.17;4.67;;;3.50;92.80;;;;;;4999974;28;20255;-70
2021/10/27 06:09:19;;;;;;;9.67;4.63;;;3.60;92.70;;;;;;5000646;28;20197;-71
2021/10/27 06:11:45;;;;;;;6.53;4.23;;;3.70;92.70;;;;;;4997762;28;20683;-73
2021/10/27 06:14:12;;;;;;;5.33;4.63;;;3.70;92.70;;;;;;4996818;28;20184;-73
2021/10/27 06:16:38;;;;;;;4.80;4.40;;;3.80;92.60;;;;;;5001065;28;20256;-71
2021/10/27 06:19:04;;;;;;;5.03;4.63;;;3.90;92.50;;;;;;4986472;28;20763;-69
2021/10/27 06:21:31;;;;;;;5.13;4.73;;;4.00;92.40;;;;;;4997562;28;20212;-67
2021/10/27 06:23:58;;;;;;;11.57;5.43;;;4.00;92.40;;;;;;5001624;28;20177;-71
2021/10/27 06:26:24;;;;;;;7.13;6.20;;;4.10;92.50;;;;;;4998956;28;20220;-71
2021/10/27 06:31:35;;;;;;;9.17;6.63;;;4.30;92.40;;;;;;5023862;28;20611;-70
2021/10/27 06:47:25;;;;;;;15.17;9.87;;;5.20;92.60;;;;;;5023167;28;20187;-70
2021/10/27 06:49:50;;;;;;;13.90;9.67;;;5.40;92.30;;;;;;5025514;28;20583;-72
2021/10/27 06:52:16;;;;;;;18.67;10.17;;;5.50;92.10;;;;;;5025129;28;20176;-71
2021/10/27 06:54:44;;;;;;;18.73;9.50;;;5.80;92.40;;;;;;5024751;28;20192;-72
2021/10/27 06:57:10;;;;;;;20.20;10.13;;;6.10;92.40;;;;;;5023058;28;20216;-74
2021/10/27 06:59:39;;;;;;;18.07;9.70;;;6.60;92.10;;;;;;5025914;28;20187;-75
2021/10/27 07:05:01;;;;;;;21.73;10.97;;;7.50;88.80;;;;;;5023086;28;20198;-72
2021/10/27 07:15:39;;;;;;;13.83;9.03;;;9.40;83.20;;;;;;5024186;28;20230;-73
2021/10/27 07:18:05;;;;;;;12.30;7.77;;;9.90;83.20;;;;;;5025107;28;20200;-74
2021/10/27 07:20:31;;;;;;;14.60;8.60;;;10.60;84.10;;;;;;5024284;28;20750;-73
2021/10/27 07:23:00;;;;;;;11.77;7.67;;;11.30;78.90;;;;;;5021369;28;20181;-74
2021/10/27 07:25:33;;;;;;;9.40;7.23;;;11.90;77.80;;;;;;5023692;28;20238;-74
2021/10/27 07:27:58;;;;;;;10.02;7.63;;;12.60;77.60;;;;;;5024566;28;20184;-74
2021/10/27 07:30:25;;;;;;;9.63;8.18;;;13.30;78.50;;;;;;5022544;28;20992;-74
2021/10/27 07:32:53;;;;;;;12.20;8.10;;;14.00;74.60;;;;;;5026481;28;20181;-74
2021/10/27 07:35:29;;;;;;;14.10;8.77;;;14.70;72.70;;;;;;5025656;28;20180;-74
2021/10/27 07:40:43;;;;;;;12.75;9.48;;;16.00;69.50;;;;;;5023725;28;20631;-74
2021/10/27 07:43:13;;;;;;;16.55;10.30;;;16.70;68.10;;;;;;5024489;28;20216;-74
2021/10/27 07:45:40;;;;;;;15.10;9.35;;;17.30;66.60;;;;;;5022452;28;20181;-69
2021/10/27 07:48:06;;;;;;;13.65;10.05;;;17.90;65.30;;;;;;5025713;28;20284;-74
2021/10/27 07:50:33;;;;;;;10.18;9.18;;;18.20;63.50;;;;;;5024383;28;20183;-73
2021/10/27 07:53:02;;;;;;;10.30;9.32;;;18.40;61.40;;;;;;5027228;28;20185;-74
2021/10/27 07:55:29;;;;;;;11.23;9.05;;;18.70;61.50;;;;;;5027465;28;20180;-74
2021/10/27 07:57:56;;;;;;;10.73;9.23;;;19.00;60.50;;;;;;5025619;28;20367;-74
2021/10/27 08:00:23;;;;;;;11.90;9.07;;;19.40;60.70;;;;;;5028976;28;20253;-69
2021/10/27 08:02:50;;;;;;;11.20;9.68;;;19.80;61.90;;;;;;5023090;28;20302;-74
2021/10/27 08:05:16;;;;;;;9.75;8.75;;;20.30;59.70;;;;;;5023186;28;20176;-73
2021/10/27 08:07:46;;;;;;;14.10;9.32;;;20.80;59.20;;;;;;5025965;28;20192;-73
2021/10/27 08:10:14;;;;;;;10.52;9.10;;;21.10;58.30;;;;;;5025057;28;20185;-73
2021/10/27 08:12:41;;;;;;;13.35;9.77;;;21.50;56.40;;;;;;5027194;28;20200;-73
2021/10/27 08:15:08;;;;;;;13.48;9.20;;;22.40;57.20;;;;;;5028199;28;20353;-74
2021/10/27 08:17:34;;;;;;;11.00;8.52;;;22.80;56.40;;;;;;5025764;28;20212;-77
2021/10/27 08:20:01;;;;;;;11.30;9.35;;;22.80;56.60;;;;;;5028173;28;20695;-74
2021/10/27 08:22:26;;;;;;;16.00;9.25;;;23.20;56.40;;;;;;5025398;28;20233;-74
2021/10/27 08:24:53;;;;;;;14.25;8.40;;;23.60;54.90;;;;;;5026386;28;20180;-74
2021/10/27 08:27:21;;;;;;;9.52;8.57;;;24.00;54.70;;;;;;5025088;28;20250;-75
2021/10/27 08:29:47;;;;;;;9.10;8.18;;;24.20;53.60;;;;;;5023716;28;20188;-74
2021/10/27 08:34:54;;;;;;;5.90;5.55;;;24.40;51.40;;;;;;5024391;28;20681;-75
2021/10/27 08:37:20;;;;;;;5.30;5.03;;;24.20;52.10;;;;;;5026202;28;20216;-74
2021/10/27 08:39:46;;;;;;;5.45;5.05;;;23.90;50.70;;;;;;5028394;28;20268;-74
2021/10/27 08:42:13;;;;;;;5.85;5.45;;;23.20;51.00;;;;;;5026128;28;20267;-74
2021/10/27 08:44:42;;;;;;;5.05;4.85;;;22.70;51.80;;;;;;5024389;28;20185;-73
2021/10/27 08:47:09;;;;;;;5.15;4.90;;;22.30;52.60;;;;;;5022502;28;20662;-75
2021/10/27 08:49:37;;;;;;;5.75;5.28;;;22.10;53.40;;;;;;5024806;28;20853;-70
2021/10/27 08:52:05;;;;;;;4.47;4.28;;;22.00;52.00;;;;;;5026557;28;20639;-75
2021/10/27 08:54:32;;;;;;;5.05;4.85;;;22.00;52.00;;;;;;5026237;28;20185;-74
2021/10/27 08:57:05;;;;;;;8.95;4.90;;;22.10;52.70;;;;;;5022157;28;20220;-73
2021/10/27 09:02:31;;;;;;;4.85;4.65;;;22.90;54.10;;;;;;5024828;28;20191;-75
2021/10/27 09:08:08;;;;;;;5.88;5.32;;;24.00;53.30;;;;;;5022351;28;20180;-75
2021/10/27 09:44:31;;;;;;;4.05;3.80;;;26.80;48.40;;;;;;5016867;28;20264;-71
2021/10/27 10:06:21;;;;;;;4.55;4.25;;;25.70;47.80;;;;;;5024688;28;20195;-73
2021/10/27 10:08:49;;;;;;;3.70;3.50;;;26.10;48.40;;;;;;5021804;28;20209;-74
2021/10/27 10:11:16;;;;;;;3.72;3.53;;;26.60;48.70;;;;;;5021689;28;21111;-73
2021/10/27 10:13:47;;;;;;;3.42;3.15;;;27.10;46.50;;;;;;5022794;28;20188;-76
2021/10/27 10:16:15;;;;;;;3.95;3.75;;;27.30;47.20;;;;;;5022709;28;20622;-73
2021/10/27 10:18:43;;;;;;;4.10;3.90;;;27.60;47.40;;;;;;5017014;28;20275;-71
2021/10/27 10:21:12;;;;;;;3.53;3.42;;;27.90;46.80;;;;;;5024236;28;20516;-75
2021/10/27 10:23:37;;;;;;;3.75;3.53;;;28.00;46.90;;;;;;5023877;28;20180;-73
2021/10/27 10:26:08;;;;;;;3.63;3.42;;;28.20;47.00;;;;;;5023081;28;20293;-73
2021/10/27 10:28:43;;;;;;;3.70;3.53;;;28.60;45.90;;;;;;5022945;28;20184;-73
2021/10/27 10:31:09;;;;;;;3.90;3.65;;;28.90;46.30;;;;;;5020805;28;20188;-74
2021/10/27 10:33:42;;;;;;;4.20;4.07;;;29.10;43.90;;;;;;5016068;28;20196;-74
2021/10/27 10:36:24;;;;;;;7.43;3.92;;;28.80;44.90;;;;;;5023038;28;21758;-73
2021/10/27 11:40:32;;;;;;;3.80;3.50;;;29.60;42.80;;;;;;5025595;28;20243;-76
2021/10/27 11:43:05;;;;;;;3.60;3.40;;;29.60;44.00;;;;;;5024741;28;20268;-75
2021/10/27 11:48:31;;;;;;;3.38;3.28;;;29.30;45.30;;;;;;5026092;28;20223;-74
2021/10/27 11:50:55;;;;;;;2.88;2.78;;;;;;;;;;5026347;28;20208;-72
2021/10/27 11:53:32;;;;;;;2.88;2.78;;;29.60;42.70;;;;;;5027340;28;20267;-75
2021/10/27 11:56:13;;;;;;;2.63;2.53;;;29.70;44.10;;;;;;5025072;28;20176;-75
2021/10/27 11:58:44;;;;;;;2.95;2.85;;;30.00;43.90;;;;;;5029435;28;20220;-77
2021/10/27 12:01:36;;;;;;;3.35;3.25;;;30.40;43.50;;;;;;5026294;28;20203;-74
2021/10/27 12:04:08;;;;;;;3.88;3.67;;;30.40;44.00;;;;;;5028265;28;20194;-74
2021/10/27 12:14:58;;;;;;;3.78;3.50;;;29.70;44.20;;;;;;5027159;28;20659;-74
2021/10/27 12:20:13;;;;;;;3.90;3.63;;;29.60;45.10;;;;;;4957939;28;20205;-72
2021/10/27 12:22:38;;;;;;;4.00;3.80;;;29.30;44.40;;;;;;4955879;28;20899;-72
2021/10/27 12:25:05;;;;;;;3.03;2.97;;;29.00;44.60;;;;;;4953570;28;20210;-73
2021/10/27 12:27:36;;;;;;;5.63;4.20;;;28.70;44.80;;;;;;4952462;28;20696;-72
2021/10/27 12:30:16;;;;;;;4.40;3.92;;;28.50;44.70;;;;;;4954927;28;20222;-73
2021/10/27 12:32:57;;;;;;;3.83;3.63;;;27.90;44.50;;;;;;4957421;28;20190;-72
2021/10/27 12:35:25;;;;;;;4.20;3.88;;;28.10;46.10;;;;;;4959163;28;20269;-73
2021/10/27 12:37:55;;;;;;;4.05;3.80;;;28.00;44.20;;;;;;4957807;28;20626;-73
2021/10/27 12:40:29;;;;;;;4.28;3.78;;;27.90;46.30;;;;;;4954557;28;20293;-73
2021/10/27 12:43:15;;;;;;;3.35;3.25;;;27.90;46.60;;;;;;4955171;28;20183;-73
2021/10/27 12:45:46;;;;;;;3.65;3.45;;;28.10;45.50;;;;;;4954798;28;20205;-73
2021/10/27 12:48:12;;;;;;;2.88;2.78;;;;;;;;;;4957738;28;20274;-73
2021/10/27 12:50:53;;;;;;;2.90;2.80;;;28.30;45.70;;;;;;4955526;28;20286;-73
2021/10/27 12:53:33;;;;;;;3.72;3.53;;;28.30;44.60;;;;;;4950100;28;20277;-71
2021/10/27 12:56:17;;;;;;;3.90;3.80;;;28.30;44.40;;;;;;4957806;28;20649;-72
2021/10/27 12:58:48;;;;;;;3.47;3.28;;;28.20;44.60;;;;;;5027563;28;20200;-71
2021/10/27 13:01:32;;;;;;;3.13;2.90;;;28.00;45.70;;;;;;5026822;28;20189;-71
2021/10/27 13:09:25;;;;;;;4.15;3.85;;;;;;;;;;5025390;28;20181;-71
2021/10/27 13:29:42;;;;;;;3.63;3.30;;;26.80;46.10;;;;;;5026724;28;20222;-70
2021/10/27 13:32:21;;;;;;;3.20;3.08;;;26.60;46.60;;;;;;5026499;28;20176;-71
2021/10/27 13:34:47;;;;;;;3.60;3.40;;;26.20;46.30;;;;;;5025496;28;20196;-72
2021/10/27 13:37:13;;;;;;;3.35;3.10;;;25.50;47.40;;;;;;5023578;28;20208;-71
2021/10/27 13:39:40;;;;;;;3.45;3.20;;;25.50;47.70;;;;;;5023355;28;20595;-70
2021/10/27 13:42:24;;;;;;;2.72;2.63;;;25.50;47.90;;;;;;5024798;28;20190;-72
2021/10/27 13:47:40;;;;;;;4.63;3.03;;;25.70;47.60;;;;;;5026193;28;20232;-73
2021/10/27 13:58:41;;;;;;;3.10;2.83;;;25.10;46.50;;;;;;5026294;28;20223;-72
2021/10/27 14:09:08;;;;;;;3.40;2.60;;;;;;;;;;5025436;28;20173;-73
2021/10/27 14:11:42;;;;;;;3.17;2.97;;;24.40;48.20;;;;;;5024855;28;20176;-73
2021/10/27 14:19:45;;;;;;;4.53;2.63;;;23.60;48.20;;;;;;5022946;28;20185;-72
2021/10/27 14:22:37;;;;;;;3.25;3.03;;;;;;;;;;5025391;28;20437;-72
2021/10/27 15:21:44;;;;;;;8.55;5.10;;;16.40;57.80;;;;;;5019392;28;20278;-72
2021/10/27 15:24:35;;;;;;;5.72;5.15;;;16.00;58.20;;;;;;5023453;28;20173;-71
2021/10/27 15:40:41;;;;;;;5.57;4.60;;;13.60;62.90;;;;;;4981304;28;20229;-73
2021/10/27 15:43:37;;;;;;;6.18;4.43;;;13.30;63.20;;;;;;4977981;28;20189;-73
2021/10/27 15:51:23;;;;;;;6.60;5.75;;;12.70;65.00;;;;;;4982026;28;20715;-72
2021/10/27 15:53:53;;;;;;;5.95;5.25;;;12.50;65.60;;;;;;4982088;28;20249;-71
2021/10/27 15:56:20;;;;;;;7.30;5.82;;;12.40;65.60;;;;;;4980480;28;20574;-73
2021/10/27 15:58:46;;;;;;;8.65;5.82;;;12.20;66.30;;;;;;4979939;28;20194;-73
2021/10/27 16:01:11;;;;;;;7.72;5.35;;;12.20;66.80;;;;;;4981885;28;20186;-73
2021/10/27 16:03:37;;;;;;;8.98;6.72;;;12.10;66.50;;;;;;4979562;28;20230;-72
2021/10/27 16:06:04;;;;;;;7.03;6.32;;;12.00;67.00;;;;;;4981281;28;20726;-72
2021/10/27 16:08:30;;;;;;;10.55;6.78;;;11.90;67.80;;;;;;4976652;28;20201;-72
2021/10/27 16:10:57;;;;;;;12.60;6.43;;;11.90;67.40;;;;;;4976704;28;20198;-72
2021/10/27 16:13:24;;;;;;;10.98;6.20;;;11.90;67.50;;;;;;4978907;28;20264;-73
2021/10/27 16:16:00;;;;;;;15.98;7.45;;;11.80;67.40;;;;;;4983906;28;20839;-72
2021/10/27 16:18:29;;;;;;;19.27;7.68;;;11.80;68.00;;;;;;5024571;28;20250;-71
2021/10/27 16:20:56;;;;;;;12.93;6.95;;;11.80;67.50;;;;;;5018329;28;20184;-73
2021/10/27 16:23:21;;;;;;;16.08;6.40;;;11.70;67.90;;;;;;5023520;28;20177;-72
2021/10/27 16:25:50;;;;;;;9.80;6.82;;;11.70;67.80;;;;;;5022246;28;20192;-72
2021/10/27 16:28:16;;;;;;;6.88;5.80;;;11.70;68.60;;;;;;5023699;28;20216;-72
2021/10/27 16:30:42;;;;;;;7.25;6.55;;;11.70;69.20;;;;;;5024623;28;20188;-71
2021/10/27 16:33:08;;;;;;;12.77;5.93;;;11.70;69.30;;;;;;5026210;28;20573;-73
2021/10/27 16:35:34;;;;;;;9.15;5.60;;;11.60;69.40;;;;;;5029326;28;20179;-73
2021/10/27 16:38:04;;;;;;;8.45;5.50;;;11.60;69.50;;;;;;5026033;28;20305;-73
2021/10/27 16:40:31;;;;;;;8.52;5.97;;;11.50;69.40;;;;;;5026824;28;20187;-73
2021/10/27 16:42:58;;;;;;;7.15;5.28;;;11.50;69.30;;;;;;5025568;28;20238;-72
2021/10/27 16:45:24;;;;;;;6.70;4.28;;;11.40;69.70;;;;;;5024662;28;20184;-73
2021/10/27 16:47:57;;;;;;;4.22;3.92;;;11.40;69.90;;;;;;5026056;28;20188;-72
2021/10/27 16:50:34;;;;;;;4.20;3.90;;;11.30;70.00;;;;;;5027846;28;20186;-72
2021/10/27 16:53:03;;;;;;;4.13;3.72;;;11.30;70.00;;;;;;5024868;28;20191;-72
2021/10/27 16:55:30;;;;;;;6.00;3.65;;;11.30;70.20;;;;;;5022946;28;20708;-73
2021/10/27 16:57:59;;;;;;;4.03;3.78;;;11.20;71.00;;;;;;5025803;28;20215;-73
2021/10/27 17:00:59;;;;;;;8.98;4.28;;;11.20;70.20;;;;;;5021234;28;20334;-74
2021/10/27 17:14:02;;;;;;;6.03;4.82;;;11.10;71.10;;;;;;4923814;29;20196;-70
2021/10/27 17:16:31;;;;;;;7.18;6.13;;;11.00;71.50;;;;;;4920010;29;20199;-70
2021/10/27 17:18:57;;;;;;;7.80;5.72;;;11.00;71.90;;;;;;4921748;29;20271;-73
2021/10/27 17:21:26;;;;;;;5.97;5.40;;;10.90;72.40;;;;;;4920452;29;20694;-74
2021/10/27 17:23:53;;;;;;;8.63;6.25;;;10.90;72.10;;;;;;4922216;29;20199;-76
2021/10/27 17:26:19;;;;;;;8.32;6.70;;;10.80;72.10;;;;;;4923882;29;20196;-73
2021/10/27 17:28:45;;;;;;;8.43;6.70;;;10.80;72.20;;;;;;4923305;29;21737;-76
2021/10/27 17:31:11;;;;;;;10.50;6.40;;;10.80;72.50;;;;;;4923106;29;20752;-73
2021/10/27 17:33:43;;;;;;;11.75;6.70;;;10.70;72.50;;;;;;4918521;29;20196;-74
2021/10/27 17:36:29;;;;;;;9.13;5.88;;;10.70;72.30;;;;;;4911715;29;20192;-73
2021/10/27 17:38:54;;;;;;;7.47;6.22;;;10.60;72.80;;;;;;4920449;29;20215;-73
2021/10/27 17:41:24;;;;;;;6.68;5.97;;;10.50;73.40;;;;;;4923787;29;20187;-73
2021/10/27 17:43:51;;;;;;;12.90;5.53;;;10.40;73.60;;;;;;4945556;28;20190;-72
2021/10/27 17:46:19;;;;;;;8.80;6.40;;;10.20;74.10;;;;;;4954489;28;20632;-73
2021/10/27 17:48:57;;;;;;;17.48;6.25;;;10.10;75.20;;;;;;4955022;28;20634;-72
2021/10/27 17:51:27;;;;;;;8.57;5.25;;;10.00;76.00;;;;;;5015113;28;20204;-74
2021/10/27 17:59:22;;;;;;;7.82;6.40;;;9.60;76.60;;;;;;5026573;28;20206;-73
2021/10/27 18:01:49;;;;;;;13.87;6.43;;;9.40;77.00;;;;;;5025205;28;20667;-74
2021/10/27 18:04:15;;;;;;;14.10;7.97;;;9.40;77.70;;;;;;5022291;28;20192;-70
2021/10/27 18:06:41;;;;;;;14.03;7.40;;;9.30;77.70;;;;;;5024425;28;20196;-75
2021/10/27 18:09:13;;;;;;;14.37;8.93;;;9.20;77.60;;;;;;5023931;28;20737;-75
2021/10/27 18:11:40;;;;;;;14.83;8.90;;;9.10;78.00;;;;;;5025625;28;20184;-75
2021/10/27 18:14:09;;;;;;;20.27;8.50;;;9.00;78.50;;;;;;5052834;28;20662;-76